Time,TemperatureF,DewpointF,PressureIn,WindDirection,WindDirectionDegrees,WindSpeedMPH,WindSpeedGustMPH,Humidity,HourlyPrecipIn,Conditions,Clouds,dailyrainin,SoftwareType,DateUTC
2013-04-26 00:03:00,42.0,33.0,30.24,SSE,158,0.0,0.0,69,0.00,,,0.03,,2013-04-26 04:03:00,
2013-04-26 00:12:00,42.0,33.0,30.24,SSE,158,0.0,0.0,69,0.00,,,0.03,,2013-04-26 04:12:00,
2013-04-26 00:23:00,41.0,34.0,30.24,SSE,158,0.0,0.0,75,0.00,,,0.03,,2013-04-26 04:23:00,
2013-04-26 00:32:00,41.0,34.0,30.24,SSE,158,0.0,0.0,75,0.00,,,0.03,,2013-04-26 04:32:00,
2013-04-26 00:43:00,41.0,34.0,30.24,SSE,158,0.0,0.0,75,0.00,,,0.03,,2013-04-26 04:43:00,
2013-04-26 00:53:00,40.0,32.0,30.25,SSE,158,0.0,0.0,73,0.00,,,0.03,,2013-04-26 04:53:00,
2013-04-26 01:02:00,40.0,32.0,30.25,SSE,158,0.0,0.0,73,0.00,,,0.03,,2013-04-26 05:02:00,
2013-04-26 01:13:00,40.0,32.0,30.25,SSE,158,0.0,0.0,73,0.00,,,0.03,,2013-04-26 05:13:00,
2013-04-26 01:22:00,39.0,32.0,30.26,SSE,158,0.0,0.0,77,0.00,,,0.03,,2013-04-26 05:22:00,
2013-04-26 01:32:00,39.0,32.0,30.26,SSE,158,0.0,0.0,77,0.00,,,0.03,,2013-04-26 05:32:00,
2013-04-26 01:42:00,39.0,32.0,30.26,SSE,158,0.0,0.0,77,0.00,,,0.03,,2013-04-26 05:42:00,
2013-04-26 01:52:00,38.0,32.0,30.27,SSE,158,0.0,0.0,80,0.00,,,0.03,,2013-04-26 05:52:00,
2013-04-26 02:02:00,38.0,32.0,30.27,SSE,158,0.0,0.0,80,0.00,,,0.03,,2013-04-26 06:02:00,
2013-04-26 02:12:00,38.0,32.0,30.27,SSE,158,0.0,0.0,80,0.00,,,0.03,,2013-04-26 06:12:00,
2013-04-26 02:22:00,38.0,33.0,30.27,SSE,158,0.0,0.0,81,0.00,,,0.03,,2013-04-26 06:22:00,
2013-04-26 02:32:00,38.0,33.0,30.27,SSE,158,0.0,0.0,81,0.00,,,0.03,,2013-04-26 06:32:00,
2013-04-26 02:42:00,38.0,33.0,30.27,SSE,158,0.0,0.0,81,0.00,,,0.03,,2013-04-26 06:42:00,
2013-04-26 02:52:00,37.0,32.0,30.27,SSE,158,0.0,0.0,81,0.00,,,0.03,,2013-04-26 06:52:00,
2013-04-26 03:01:00,37.0,32.0,30.27,SSE,158,0.0,0.0,81,0.00,,,0.03,,2013-04-26 07:01:00,
2013-04-26 03:11:00,37.0,32.0,30.27,SSE,158,0.0,0.0,81,0.00,,,0.03,,2013-04-26 07:11:00,
2013-04-26 03:22:00,36.0,31.0,30.28,SSE,158,0.0,0.0,82,0.00,,,0.03,,2013-04-26 07:22:00,
2013-04-26 03:32:00,36.0,31.0,30.28,SSE,158,0.0,0.0,82,0.00,,,0.03,,2013-04-26 07:32:00,
2013-04-26 03:42:00,36.0,31.0,30.28,SSE,158,0.0,0.0,82,0.00,,,0.03,,2013-04-26 07:42:00,
2013-04-26 03:52:00,35.0,31.0,30.29,SSE,158,0.0,0.0,84,0.00,,,0.03,,2013-04-26 07:52:00,
2013-04-26 04:02:00,35.0,31.0,30.29,SSE,158,0.0,0.0,84,0.00,,,0.03,,2013-04-26 08:02:00,
2013-04-26 04:11:00,35.0,31.0,30.29,SSE,158,0.0,0.0,84,0.00,,,0.03,,2013-04-26 08:11:00,
2013-04-26 04:22:00,35.0,31.0,30.30,SSE,158,0.0,0.0,84,0.00,,,0.03,,2013-04-26 08:22:00,
2013-04-26 04:32:00,35.0,31.0,30.30,SSE,158,0.0,0.0,84,0.00,,,0.03,,2013-04-26 08:32:00,
2013-04-26 04:42:00,35.0,31.0,30.30,SSE,158,0.0,0.0,84,0.00,,,0.03,,2013-04-26 08:42:00,
2013-04-26 04:52:00,34.0,30.0,30.31,SSE,158,0.0,0.0,86,0.00,,,0.03,,2013-04-26 08:52:00,
2013-04-26 05:01:00,34.0,30.0,30.31,SSE,158,0.0,0.0,86,0.00,,,0.03,,2013-04-26 09:01:00,
2013-04-26 05:12:00,34.0,30.0,30.31,SSE,158,0.0,0.0,86,0.00,,,0.03,,2013-04-26 09:12:00,
2013-04-26 05:22:00,33.0,29.0,30.32,SSE,158,0.0,0.0,86,0.00,,,0.02,,2013-04-26 09:22:00,
2013-04-26 05:33:00,33.0,29.0,30.32,SSE,158,0.0,0.0,86,0.00,,,0.02,,2013-04-26 09:33:00,
2013-04-26 05:43:00,33.0,29.0,30.32,SSE,158,0.0,0.0,86,0.00,,,0.02,,2013-04-26 09:43:00,
2013-04-26 05:53:00,33.0,30.0,30.32,SSE,158,0.0,0.0,87,0.00,,,0.02,,2013-04-26 09:53:00,
2013-04-26 06:03:00,33.0,30.0,30.32,SSE,158,0.0,0.0,87,0.00,,,0.02,,2013-04-26 10:03:00,
2013-04-26 06:12:00,33.0,30.0,30.32,SSE,158,0.0,0.0,87,0.00,,,0.02,,2013-04-26 10:12:00,
2013-04-26 06:23:00,32.0,29.0,30.33,SSE,158,0.0,0.0,88,0.00,,,0.01,,2013-04-26 10:23:00,
2013-04-26 06:33:00,32.0,29.0,30.33,SSE,158,0.0,0.0,88,0.00,,,0.01,,2013-04-26 10:33:00,
2013-04-26 06:42:00,32.0,29.0,30.33,SSE,158,0.0,0.0,88,0.00,,,0.01,,2013-04-26 10:42:00,
2013-04-26 06:52:00,32.0,29.0,30.35,SSE,158,0.0,0.0,89,0.00,,,0.01,,2013-04-26 10:52:00,
2013-04-26 07:02:00,32.0,29.0,30.35,SSE,158,0.0,0.0,89,0.00,,,0.01,,2013-04-26 11:02:00,
2013-04-26 07:11:00,32.0,29.0,30.35,SSE,158,0.0,0.0,89,0.00,,,0.01,,2013-04-26 11:11:00,
2013-04-26 07:22:00,34.0,31.0,30.36,SSE,158,0.0,0.0,89,0.00,,,0.00,,2013-04-26 11:22:00,
2013-04-26 07:32:00,34.0,31.0,30.36,SSE,158,0.0,0.0,89,0.00,,,0.00,,2013-04-26 11:32:00,
2013-04-26 07:42:00,34.0,31.0,30.36,SSE,158,0.0,0.0,89,0.00,,,0.00,,2013-04-26 11:42:00,
2013-04-26 07:52:00,37.0,32.0,30.37,SSE,158,0.0,0.0,83,0.00,,,0.00,,2013-04-26 11:52:00,
2013-04-26 08:01:00,37.0,32.0,30.37,SSE,158,0.0,0.0,83,0.00,,,0.00,,2013-04-26 12:01:00,
2013-04-26 08:11:00,37.0,32.0,30.37,SSE,158,0.0,0.0,83,0.00,,,0.00,,2013-04-26 12:11:00,
2013-04-26 08:22:00,40.0,33.0,30.37,SSE,158,0.0,0.0,77,0.00,,,0.00,,2013-04-26 12:22:00,
2013-04-26 08:32:00,40.0,33.0,30.37,SSE,158,0.0,0.0,77,0.00,,,0.00,,2013-04-26 12:32:00,
2013-04-26 08:42:00,40.0,33.0,30.37,SSE,158,0.0,0.0,77,0.00,,,0.00,,2013-04-26 12:42:00,
2013-04-26 08:52:00,46.0,34.0,30.37,ENE,57,1.0,2.0,63,0.00,,,0.00,,2013-04-26 12:52:00,
2013-04-26 09:01:00,46.0,34.0,30.37,ENE,57,1.0,2.0,63,0.00,,,0.00,,2013-04-26 13:01:00,
2013-04-26 09:11:00,46.0,34.0,30.37,ENE,57,1.0,2.0,63,0.00,,,0.00,,2013-04-26 13:11:00,
2013-04-26 09:22:00,51.0,33.0,30.37,ENE,64,0.0,3.0,49,0.00,,,0.00,,2013-04-26 13:22:00,
2013-04-26 09:32:00,51.0,33.0,30.37,ENE,64,0.0,3.0,49,0.00,,,0.00,,2013-04-26 13:32:00,
2013-04-26 09:42:00,51.0,33.0,30.37,ENE,64,0.0,3.0,49,0.00,,,0.00,,2013-04-26 13:42:00,
2013-04-26 09:52:00,53.0,32.0,30.38,SSE,161,2.0,6.0,44,0.00,,,0.00,,2013-04-26 13:52:00,
2013-04-26 10:01:00,53.0,32.0,30.38,SSE,161,2.0,6.0,44,0.00,,,0.00,,2013-04-26 14:01:00,
2013-04-26 10:11:00,53.0,32.0,30.38,SSE,161,2.0,6.0,44,0.00,,,0.00,,2013-04-26 14:11:00,
2013-04-26 10:21:00,54.0,32.0,30.39,South,191,0.0,4.0,43,0.00,,,0.00,,2013-04-26 14:21:00,
2013-04-26 10:32:00,54.0,32.0,30.39,South,191,0.0,4.0,43,0.00,,,0.00,,2013-04-26 14:32:00,
2013-04-26 10:42:00,54.0,32.0,30.39,South,191,0.0,4.0,43,0.00,,,0.00,,2013-04-26 14:42:00,
2013-04-26 10:52:00,55.0,32.0,30.39,NE,56,0.0,4.0,42,0.00,,,0.00,,2013-04-26 14:52:00,
2013-04-26 11:01:00,55.0,32.0,30.39,NE,56,0.0,4.0,42,0.00,,,0.00,,2013-04-26 15:01:00,
2013-04-26 11:12:00,55.0,32.0,30.39,NE,56,0.0,4.0,42,0.00,,,0.00,,2013-04-26 15:12:00,
2013-04-26 11:22:00,54.0,31.0,30.40,ENE,77,1.0,6.0,42,0.00,,,0.00,,2013-04-26 15:22:00,
2013-04-26 11:33:00,54.0,31.0,30.40,ENE,77,1.0,6.0,42,0.00,,,0.00,,2013-04-26 15:33:00,
2013-04-26 11:43:00,54.0,31.0,30.40,ENE,77,1.0,6.0,42,0.00,,,0.00,,2013-04-26 15:43:00,
2013-04-26 11:53:00,55.0,33.0,30.40,SSE,167,1.0,4.0,43,0.00,,,0.00,,2013-04-26 15:53:00,
2013-04-26 12:03:00,55.0,33.0,30.40,SSE,167,1.0,4.0,43,0.00,,,0.00,,2013-04-26 16:03:00,
2013-04-26 12:13:00,55.0,33.0,30.40,SSE,167,1.0,4.0,43,0.00,,,0.00,,2013-04-26 16:13:00,
2013-04-26 12:23:00,56.0,33.0,30.40,ESE,121,1.0,4.0,42,0.00,,,0.00,,2013-04-26 16:23:00,
2013-04-26 12:33:00,56.0,33.0,30.40,ESE,121,1.0,4.0,42,0.00,,,0.00,,2013-04-26 16:33:00,
2013-04-26 12:42:00,56.0,33.0,30.40,ESE,121,1.0,4.0,42,0.00,,,0.00,,2013-04-26 16:42:00,
2013-04-26 12:53:00,57.0,35.0,30.39,East,87,1.0,3.0,43,0.00,,,0.00,,2013-04-26 16:53:00,
2013-04-26 13:02:00,57.0,35.0,30.39,East,87,1.0,3.0,43,0.00,,,0.00,,2013-04-26 17:02:00,
2013-04-26 13:12:00,57.0,35.0,30.39,East,87,1.0,3.0,43,0.00,,,0.00,,2013-04-26 17:12:00,
2013-04-26 13:22:00,56.0,35.0,30.39,ESE,105,0.0,4.0,45,0.00,,,0.00,,2013-04-26 17:22:00,
2013-04-26 13:32:00,56.0,35.0,30.39,ESE,105,0.0,4.0,45,0.00,,,0.00,,2013-04-26 17:32:00,
2013-04-26 13:42:00,56.0,35.0,30.39,ESE,105,0.0,4.0,45,0.00,,,0.00,,2013-04-26 17:42:00,
2013-04-26 13:52:00,57.0,37.0,30.38,ESE,123,1.0,4.0,47,0.00,,,0.00,,2013-04-26 17:52:00,
2013-04-26 14:02:00,57.0,37.0,30.38,ESE,123,1.0,4.0,47,0.00,,,0.00,,2013-04-26 18:02:00,
2013-04-26 14:12:00,57.0,37.0,30.38,ESE,123,1.0,4.0,47,0.00,,,0.00,,2013-04-26 18:12:00,
2013-04-26 14:22:00,55.0,36.0,30.37,SE,132,1.0,5.0,48,0.00,,,0.00,,2013-04-26 18:22:00,
2013-04-26 14:33:00,55.0,36.0,30.37,SE,132,1.0,5.0,48,0.00,,,0.00,,2013-04-26 18:33:00,
2013-04-26 14:42:00,55.0,36.0,30.37,SE,132,1.0,5.0,48,0.00,,,0.00,,2013-04-26 18:42:00,
2013-04-26 14:52:00,55.0,36.0,30.37,SSE,155,1.0,6.0,49,0.00,,,0.00,,2013-04-26 18:52:00,
2013-04-26 15:01:00,55.0,36.0,30.37,SSE,155,1.0,6.0,49,0.00,,,0.00,,2013-04-26 19:01:00,
2013-04-26 15:12:00,55.0,36.0,30.37,SSE,155,1.0,6.0,49,0.00,,,0.00,,2013-04-26 19:12:00,
2013-04-26 15:22:00,55.0,36.0,30.37,SSE,158,3.0,6.0,49,0.00,,,0.00,,2013-04-26 19:22:00,
2013-04-26 15:32:00,55.0,36.0,30.37,SSE,158,3.0,6.0,49,0.00,,,0.00,,2013-04-26 19:32:00,
2013-04-26 15:42:00,55.0,36.0,30.37,SSE,158,3.0,6.0,49,0.00,,,0.00,,2013-04-26 19:42:00,
2013-04-26 15:52:00,54.0,35.0,30.36,SSE,157,3.0,7.0,49,0.00,,,0.00,,2013-04-26 19:52:00,
2013-04-26 16:02:00,54.0,35.0,30.36,SSE,157,3.0,7.0,49,0.00,,,0.00,,2013-04-26 20:02:00,
2013-04-26 16:11:00,54.0,35.0,30.36,SSE,157,3.0,7.0,49,0.00,,,0.00,,2013-04-26 20:11:00,
2013-04-26 16:22:00,55.0,38.0,30.36,SSE,158,0.0,4.0,52,0.00,,,0.00,,2013-04-26 20:22:00,
2013-04-26 16:32:00,55.0,38.0,30.36,SSE,158,0.0,4.0,52,0.00,,,0.00,,2013-04-26 20:32:00,
2013-04-26 16:42:00,55.0,38.0,30.36,SSE,158,0.0,4.0,52,0.00,,,0.00,,2013-04-26 20:42:00,
2013-04-26 16:52:00,54.0,37.0,30.36,SSE,163,0.0,5.0,52,0.00,,,0.00,,2013-04-26 20:52:00,
2013-04-26 17:02:00,54.0,37.0,30.36,SSE,163,0.0,5.0,52,0.00,,,0.00,,2013-04-26 21:02:00,
2013-04-26 17:11:00,54.0,37.0,30.36,SSE,163,0.0,5.0,52,0.00,,,0.00,,2013-04-26 21:11:00,
2013-04-26 17:22:00,52.0,38.0,30.36,SE,125,0.0,1.0,58,0.00,,,0.00,,2013-04-26 21:22:00,
2013-04-26 17:33:00,52.0,38.0,30.36,SE,125,0.0,1.0,58,0.00,,,0.00,,2013-04-26 21:33:00,
2013-04-26 17:42:00,52.0,38.0,30.36,SE,125,0.0,1.0,58,0.00,,,0.00,,2013-04-26 21:42:00,
2013-04-26 17:53:00,50.0,38.0,30.37,South,169,0.0,2.0,62,0.00,,,0.00,,2013-04-26 21:53:00,
2013-04-26 18:03:00,50.0,38.0,30.37,South,169,0.0,2.0,62,0.00,,,0.00,,2013-04-26 22:03:00,
2013-04-26 18:13:00,50.0,38.0,30.37,South,169,0.0,2.0,62,0.00,,,0.00,,2013-04-26 22:13:00,
2013-04-26 18:23:00,50.0,39.0,30.37,SSE,163,0.0,2.0,65,0.00,,,0.00,,2013-04-26 22:23:00,
2013-04-26 18:33:00,50.0,39.0,30.37,SSE,163,0.0,2.0,65,0.00,,,0.00,,2013-04-26 22:33:00,
2013-04-26 18:42:00,50.0,39.0,30.37,SSE,163,0.0,2.0,65,0.00,,,0.00,,2013-04-26 22:42:00,
2013-04-26 18:52:00,49.0,38.0,30.37,SSE,164,0.0,0.0,65,0.00,,,0.00,,2013-04-26 22:52:00,
2013-04-26 19:02:00,49.0,38.0,30.37,SSE,164,0.0,0.0,65,0.00,,,0.00,,2013-04-26 23:02:00,
2013-04-26 19:12:00,49.0,38.0,30.37,SSE,164,0.0,0.0,65,0.00,,,0.00,,2013-04-26 23:12:00,
2013-04-26 19:21:00,48.0,39.0,30.37,SSE,164,0.0,1.0,70,0.00,,,0.00,,2013-04-26 23:21:00,
2013-04-26 19:32:00,48.0,39.0,30.37,SSE,164,0.0,1.0,70,0.00,,,0.00,,2013-04-26 23:32:00,
2013-04-26 19:42:00,48.0,39.0,30.37,SSE,164,0.0,1.0,70,0.00,,,0.00,,2013-04-26 23:42:00,
2013-04-26 19:52:00,47.0,39.0,30.38,SSE,164,0.0,0.0,73,0.00,,,0.00,,2013-04-26 23:52:00,
2013-04-26 20:01:00,47.0,39.0,30.38,SSE,164,0.0,0.0,73,0.00,,,0.00,,2013-04-27 00:01:00,
2013-04-26 20:11:00,47.0,39.0,30.38,SSE,164,0.0,0.0,73,0.00,,,0.00,,2013-04-27 00:11:00,
2013-04-26 20:21:00,46.0,39.0,30.39,SSW,192,0.0,0.0,77,0.00,,,0.00,,2013-04-27 00:21:00,
2013-04-26 20:32:00,46.0,39.0,30.39,SSW,192,0.0,0.0,77,0.00,,,0.00,,2013-04-27 00:32:00,
2013-04-26 20:42:00,46.0,39.0,30.39,SSW,192,0.0,0.0,77,0.00,,,0.00,,2013-04-27 00:42:00,
2013-04-26 20:52:00,46.0,40.0,30.39,SSW,192,0.0,0.0,79,0.00,,,0.00,,2013-04-27 00:52:00,
2013-04-26 21:01:00,46.0,40.0,30.39,SSW,192,0.0,0.0,79,0.00,,,0.00,,2013-04-27 01:01:00,
2013-04-26 21:12:00,46.0,40.0,30.39,SSW,192,0.0,0.0,79,0.00,,,0.00,,2013-04-27 01:12:00,
2013-04-26 21:21:00,45.0,40.0,30.40,SSW,192,0.0,0.0,81,0.00,,,0.00,,2013-04-27 01:21:00,
2013-04-26 21:32:00,45.0,40.0,30.40,SSW,192,0.0,0.0,81,0.00,,,0.00,,2013-04-27 01:32:00,
2013-04-26 21:42:00,45.0,40.0,30.40,SSW,192,0.0,0.0,81,0.00,,,0.00,,2013-04-27 01:42:00,
2013-04-26 21:52:00,44.0,39.0,30.40,SSW,192,0.0,0.0,83,0.00,,,0.00,,2013-04-27 01:52:00,
2013-04-26 22:02:00,44.0,39.0,30.40,SSW,192,0.0,0.0,83,0.00,,,0.00,,2013-04-27 02:02:00,
2013-04-26 22:11:00,44.0,39.0,30.40,SSW,192,0.0,0.0,83,0.00,,,0.00,,2013-04-27 02:11:00,
2013-04-26 22:22:00,43.0,39.0,30.40,SSW,192,0.0,0.0,85,0.00,,,0.00,,2013-04-27 02:22:00,
2013-04-26 22:32:00,43.0,39.0,30.40,SSW,192,0.0,0.0,85,0.00,,,0.00,,2013-04-27 02:32:00,
2013-04-26 22:42:00,43.0,39.0,30.40,SSW,192,0.0,0.0,85,0.00,,,0.00,,2013-04-27 02:42:00,
2013-04-26 22:52:00,42.0,38.0,30.39,SSW,192,0.0,0.0,87,0.00,,,0.00,,2013-04-27 02:52:00,
2013-04-26 23:02:00,42.0,38.0,30.39,SSW,192,0.0,0.0,87,0.00,,,0.00,,2013-04-27 03:02:00,
2013-04-26 23:11:00,42.0,38.0,30.39,SSW,192,0.0,0.0,87,0.00,,,0.00,,2013-04-27 03:11:00,
2013-04-26 23:22:00,40.0,37.0,30.39,SSW,192,0.0,0.0,89,0.00,,,0.00,,2013-04-27 03:22:00,
2013-04-26 23:33:00,40.0,37.0,30.39,SSW,192,0.0,0.0,89,0.00,,,0.00,,2013-04-27 03:33:00,
2013-04-26 23:43:00,40.0,37.0,30.39,SSW,192,0.0,0.0,89,0.00,,,0.00,,2013-04-27 03:43:00,
2013-04-26 23:53:00,39.0,37.0,30.39,SSW,192,0.0,0.0,91,0.00,,,0.00,,2013-04-27 03:53:00,